createdAt,value
2023-04-14T00:00:47.241Z,1.30
2023-04-14T00:03:16.660Z,1.30
2023-04-14T00:05:44.754Z,1.30
2023-04-14T00:08:12.535Z,1.40
2023-04-14T00:10:40.322Z,1.40
2023-04-14T00:13:08.140Z,1.40
2023-04-14T00:15:35.950Z,1.40
2023-04-14T00:18:03.818Z,1.40
2023-04-14T00:20:32.980Z,1.40
2023-04-14T00:23:00.783Z,1.40
2023-04-14T00:25:28.579Z,1.40
2023-04-14T00:27:56.385Z,1.30
2023-04-14T00:30:24.889Z,1.30
2023-04-14T00:32:52.756Z,1.30
2023-04-14T00:35:20.689Z,1.30
2023-04-14T00:37:50.498Z,1.40
2023-04-14T00:40:18.743Z,1.40
2023-04-14T00:42:48.069Z,1.50
2023-04-14T00:45:16.381Z,1.50
2023-04-14T00:47:47.177Z,1.50
2023-04-14T00:50:16.322Z,1.50
2023-04-14T00:52:46.913Z,1.60
2023-04-14T00:55:18.954Z,1.60
2023-04-14T00:57:47.539Z,1.60
2023-04-14T01:00:15.912Z,1.60
2023-04-14T01:02:44.006Z,1.70
2023-04-14T01:05:12.213Z,1.70
2023-04-14T01:07:41.660Z,1.70
2023-04-14T01:10:11.344Z,1.70
2023-04-14T01:13:09.265Z,1.70
2023-04-14T01:15:42.323Z,1.70
2023-04-14T01:18:19.680Z,1.80
2023-04-14T01:20:51.342Z,1.80
2023-04-14T01:23:24.653Z,1.70
2023-04-14T01:26:27.524Z,1.70
2023-04-14T01:29:29.380Z,1.70
2023-04-14T01:32:03.217Z,1.70
2023-04-14T01:34:35.984Z,1.70
2023-04-14T01:37:08.128Z,1.70
2023-04-14T01:39:39.407Z,1.70
2023-04-14T01:42:11.428Z,1.70
2023-04-14T01:44:41.376Z,1.70
2023-04-14T01:47:14.530Z,1.70
2023-04-14T01:49:43.311Z,1.70
2023-04-14T01:52:13.197Z,1.70
2023-04-14T01:54:42.414Z,1.80
2023-04-14T01:57:13.715Z,1.80
2023-04-14T01:59:43.419Z,1.80
2023-04-14T02:02:14.752Z,1.90
2023-04-14T02:04:43.544Z,1.90
2023-04-14T02:07:12.763Z,1.90
2023-04-14T02:09:42.710Z,2.00
2023-04-14T02:12:12.985Z,1.90
2023-04-14T02:14:43.215Z,2.00
2023-04-14T02:17:13.290Z,2.00
2023-04-14T02:19:43.470Z,1.90
2023-04-14T02:22:11.461Z,1.90
2023-04-14T02:24:39.360Z,1.90
2023-04-14T02:27:11.224Z,1.90
2023-04-14T02:29:43.720Z,1.80
2023-04-14T02:32:20.934Z,1.70
2023-04-14T02:34:54.818Z,1.60
2023-04-14T02:37:26.382Z,1.60
2023-04-14T02:39:59.966Z,1.60
2023-04-14T02:42:29.512Z,1.60
2023-04-14T02:45:01.797Z,1.50
2023-04-14T02:47:36.574Z,1.50
2023-04-14T02:50:06.256Z,1.50
2023-04-14T02:52:36.065Z,1.40
2023-04-14T02:55:06.851Z,1.20
2023-04-14T02:57:35.277Z,1.10
2023-04-14T03:00:04.027Z,1.10
2023-04-14T03:02:34.820Z,1.00
2023-04-14T03:05:03.899Z,0.80
2023-04-14T03:07:32.748Z,0.80
2023-04-14T03:10:01.433Z,0.70
2023-04-14T03:12:30.515Z,0.70
2023-04-14T03:15:00.469Z,0.60
2023-04-14T03:17:29.624Z,0.60
2023-04-14T03:20:00.280Z,0.70
2023-04-14T03:22:29.570Z,0.70
2023-04-14T03:24:58.816Z,0.70
2023-04-14T03:27:30.061Z,0.60
2023-04-14T03:30:02.161Z,0.60
2023-04-14T03:32:35.795Z,0.40
2023-04-14T03:35:07.005Z,0.30
2023-04-14T03:37:40.789Z,0.20
2023-04-14T03:40:11.100Z,0.10
2023-04-14T03:42:44.572Z,0.10
2023-04-14T03:45:12.852Z,0.00
2023-04-14T03:47:40.729Z,0.10
2023-04-14T03:50:12.141Z,0.10
2023-04-14T03:52:43.726Z,0.20
2023-04-14T03:55:13.644Z,0.10
2023-04-14T03:57:43.873Z,0.10
2023-04-14T04:00:15.894Z,0.10
2023-04-14T04:02:45.068Z,0.00
2023-04-14T04:05:15.365Z,-0.10
2023-04-14T04:07:45.646Z,-0.20
2023-04-14T04:10:16.302Z,-0.20
2023-04-14T04:12:45.079Z,-0.20
2023-04-14T04:15:13.103Z,-0.20
2023-04-14T04:17:42.532Z,-0.40
2023-04-14T04:20:15.335Z,-0.50
2023-04-14T04:22:46.236Z,-0.50
2023-04-14T04:25:14.545Z,-0.60
2023-04-14T04:27:42.358Z,-0.60
2023-04-14T04:30:11.613Z,-0.60
2023-04-14T04:32:40.269Z,-0.60
2023-04-14T04:35:09.182Z,-0.50
2023-04-14T04:37:39.295Z,-0.50
2023-04-14T04:40:08.477Z,-0.50
2023-04-14T04:42:41.853Z,-0.40
2023-04-14T04:45:10.624Z,-0.50
2023-04-14T04:47:38.490Z,-0.40
2023-04-14T04:50:07.120Z,-0.30
2023-04-14T04:52:34.926Z,-0.10
2023-04-14T04:55:04.358Z,0.00
2023-04-14T04:57:32.129Z,0.00
2023-04-14T05:00:00.222Z,0.00
2023-04-14T05:02:28.138Z,0.00
2023-04-14T05:04:57.392Z,0.00
2023-04-14T05:07:25.228Z,0.10
2023-04-14T05:09:53.156Z,0.10
2023-04-14T05:12:22.541Z,0.20
2023-04-14T05:14:50.471Z,0.20
2023-04-14T05:17:18.249Z,0.20
2023-04-14T05:19:46.315Z,0.30
2023-04-14T05:22:14.091Z,0.40
2023-04-14T05:24:42.002Z,0.50
2023-04-14T05:27:13.861Z,0.50
2023-04-14T05:29:43.943Z,0.40
2023-04-14T05:32:13.088Z,0.50
2023-04-14T05:34:40.983Z,0.50
2023-04-14T05:37:08.876Z,0.50
2023-04-14T05:39:36.781Z,0.50
2023-04-14T05:42:04.638Z,0.60
2023-04-14T05:44:32.411Z,0.60
2023-04-14T05:47:01.592Z,0.70
2023-04-14T05:49:29.429Z,0.70
2023-04-14T05:51:57.213Z,0.80
2023-04-14T05:54:25.109Z,0.70
2023-04-14T05:56:52.934Z,0.80
2023-04-14T05:59:21.028Z,0.90
2023-04-14T06:01:49.025Z,1.00
2023-04-14T06:04:18.365Z,1.10
2023-04-14T06:06:46.359Z,1.10
2023-04-14T06:09:14.190Z,1.20
2023-04-14T06:11:41.995Z,1.40
2023-04-14T06:14:09.955Z,1.40
2023-04-14T06:16:37.793Z,1.60
2023-04-14T06:19:05.640Z,1.70
2023-04-14T06:21:34.804Z,1.80
2023-04-14T06:24:02.654Z,1.80
2023-04-14T06:26:31.323Z,2.10
2023-04-14T06:29:00.852Z,2.40
2023-04-14T06:31:29.106Z,2.70
2023-04-14T06:33:56.907Z,3.10
2023-04-14T06:36:24.719Z,3.30
2023-04-14T06:38:53.874Z,3.40
2023-04-14T06:41:21.647Z,3.70
2023-04-14T06:43:49.420Z,4.10
2023-04-14T06:46:17.353Z,4.30
2023-04-14T06:48:45.392Z,4.40
2023-04-14T06:51:14.305Z,4.30
2023-04-14T06:53:42.207Z,4.20
2023-04-14T06:56:11.536Z,4.50
2023-04-14T06:58:40.159Z,4.70
2023-04-14T07:01:08.097Z,4.90
2023-04-14T07:03:35.940Z,5.30
2023-04-14T07:06:04.880Z,5.90
2023-04-14T07:08:34.818Z,5.70
2023-04-14T07:11:03.918Z,6.20
2023-04-14T07:13:33.715Z,6.40
2023-04-14T07:16:02.192Z,6.60
2023-04-14T07:18:31.581Z,6.70
2023-04-14T07:21:00.021Z,6.60
2023-04-14T07:23:28.313Z,6.20
2023-04-14T07:25:57.818Z,6.50
2023-04-14T07:28:26.819Z,6.20
2023-04-14T07:30:56.018Z,6.60
2023-04-14T07:33:23.852Z,6.70
2023-04-14T07:36:02.163Z,6.80
2023-04-14T07:38:31.434Z,7.10
2023-04-14T07:40:59.300Z,7.30
2023-04-14T07:43:27.269Z,7.60
2023-04-14T07:45:56.489Z,7.70
2023-04-14T07:48:24.325Z,7.60
2023-04-14T07:50:52.414Z,7.50
2023-04-14T07:53:20.318Z,7.40
2023-04-14T07:55:48.139Z,7.70
2023-04-14T07:58:16.550Z,7.80
2023-04-14T08:00:44.508Z,8.30
2023-04-14T08:03:14.506Z,8.60
2023-04-14T08:05:43.147Z,8.30
2023-04-14T08:08:11.108Z,8.00
2023-04-14T08:10:39.070Z,7.70
2023-04-14T08:13:06.968Z,8.20
2023-04-14T08:15:34.804Z,8.20
2023-04-14T08:18:02.896Z,8.80
2023-04-14T08:20:32.127Z,8.50
2023-04-14T08:22:59.953Z,9.10
2023-04-14T08:25:27.741Z,9.20
2023-04-14T08:27:55.582Z,9.10
2023-04-14T08:30:24.171Z,9.10
2023-04-14T08:32:52.122Z,8.80
2023-04-14T08:35:39.286Z,8.50
2023-04-14T08:38:09.383Z,8.70
2023-04-14T08:40:40.877Z,9.40
2023-04-14T08:43:09.270Z,9.60
2023-04-14T08:45:37.724Z,9.30
2023-04-14T08:48:06.513Z,8.90
2023-04-14T08:50:37.842Z,9.60
2023-04-14T08:53:09.892Z,10.30
2023-04-14T08:55:41.299Z,10.60
2023-04-14T08:58:10.826Z,10.70
2023-04-14T09:00:39.994Z,11.20
2023-04-14T09:03:08.964Z,11.40
2023-04-14T09:05:37.302Z,11.30
2023-04-14T09:08:05.537Z,11.00
2023-04-14T09:10:36.718Z,11.30
2023-04-14T09:13:05.535Z,11.20
2023-04-14T09:15:33.460Z,11.70
2023-04-14T09:18:01.573Z,11.80
2023-04-14T09:20:35.614Z,11.60
2023-04-14T09:23:08.590Z,10.90
2023-04-14T09:25:39.375Z,11.30
2023-04-14T09:28:07.350Z,11.30
2023-04-14T09:30:35.700Z,10.50
2023-04-14T09:33:06.037Z,10.40
2023-04-14T09:35:44.902Z,11.20
2023-04-14T09:38:12.740Z,12.20
2023-04-14T09:40:44.116Z,11.50
2023-04-14T09:43:24.869Z,10.60
2023-04-14T09:45:52.930Z,10.40
2023-04-14T09:48:21.264Z,10.50
2023-04-14T09:51:03.228Z,11.10
2023-04-14T09:53:32.571Z,10.30
2023-04-14T09:56:03.534Z,10.00
2023-04-14T09:58:32.676Z,9.70
2023-04-14T10:01:00.691Z,10.50
2023-04-14T10:03:37.366Z,11.00
2023-04-14T10:06:09.677Z,11.60
2023-04-14T10:08:39.831Z,11.30
2023-04-14T10:11:20.352Z,11.70
2023-04-14T10:13:49.433Z,10.70
2023-04-14T10:16:18.166Z,11.20
2023-04-14T10:18:46.620Z,10.50
2023-04-14T10:21:15.634Z,10.90
2023-04-14T10:23:44.499Z,11.00
2023-04-14T10:26:13.887Z,10.30
2023-04-14T10:28:45.456Z,10.10
2023-04-14T10:31:16.117Z,10.50
2023-04-14T10:33:44.197Z,10.90
2023-04-14T10:36:12.049Z,11.10
2023-04-14T10:38:42.276Z,11.30
2023-04-14T10:41:11.512Z,11.40
2023-04-14T10:43:39.666Z,11.60
2023-04-14T10:46:11.147Z,12.00
2023-04-14T10:48:41.332Z,12.20
2023-04-14T10:51:10.867Z,12.00
2023-04-14T10:53:44.758Z,11.00
2023-04-14T10:56:14.178Z,11.10
2023-04-14T10:58:42.058Z,12.10
2023-04-14T11:01:31.138Z,12.20
2023-04-14T11:04:11.708Z,12.10
2023-04-14T11:06:55.988Z,12.00
2023-04-14T11:09:32.365Z,12.50
2023-04-14T11:12:06.029Z,13.20
2023-04-14T11:14:36.061Z,12.90
2023-04-14T11:17:06.129Z,13.10
2023-04-14T11:19:34.396Z,13.20
2023-04-14T11:22:02.316Z,13.80
2023-04-14T11:24:30.304Z,13.20
2023-04-14T11:26:58.484Z,12.10
2023-04-14T11:29:26.284Z,11.90
2023-04-14T11:32:06.483Z,12.50
2023-04-14T11:34:35.074Z,12.50
2023-04-14T11:37:03.969Z,12.70
2023-04-14T11:39:32.183Z,12.60
2023-04-14T11:42:01.172Z,13.10
2023-04-14T11:44:29.445Z,12.80
2023-04-14T11:46:57.490Z,12.80
2023-04-14T11:49:36.895Z,12.60
2023-04-14T11:52:10.508Z,12.80
2023-04-14T11:54:38.944Z,12.30
2023-04-14T11:57:11.291Z,12.40
2023-04-14T11:59:43.565Z,13.10
2023-04-14T12:02:18.153Z,13.30
2023-04-14T12:04:50.482Z,12.70
2023-04-14T12:07:20.922Z,12.50
2023-04-14T12:09:50.180Z,12.90
2023-04-14T12:12:19.006Z,13.20
2023-04-14T12:14:48.864Z,13.60
2023-04-14T12:17:18.763Z,13.60
2023-04-14T12:19:48.853Z,11.70
2023-04-14T12:22:24.683Z,11.40
2023-04-14T12:24:52.625Z,12.00
2023-04-14T12:27:20.746Z,12.70
2023-04-14T12:29:50.097Z,12.80
2023-04-14T12:32:18.596Z,13.10
2023-04-14T12:34:57.629Z,12.50
2023-04-14T12:37:27.436Z,11.90
2023-04-14T12:39:58.497Z,11.80
2023-04-14T12:42:27.114Z,12.20
2023-04-14T12:44:58.860Z,12.10
2023-04-14T12:47:31.387Z,11.70
2023-04-14T12:50:02.204Z,12.40
2023-04-14T12:52:38.151Z,12.10
2023-04-14T12:55:07.256Z,12.50
2023-04-14T12:57:35.867Z,12.70
2023-04-14T13:00:05.169Z,12.70
2023-04-14T13:02:35.358Z,12.20
2023-04-14T13:05:05.079Z,12.60
2023-04-14T13:07:33.018Z,12.90
2023-04-14T13:10:01.312Z,12.90
2023-04-14T13:12:29.111Z,12.50
2023-04-14T13:14:57.096Z,13.10
2023-04-14T13:17:25.141Z,13.40
2023-04-14T13:19:53.174Z,13.40
2023-04-14T13:22:22.340Z,13.60
2023-04-14T13:24:51.656Z,13.30
2023-04-14T13:27:20.235Z,13.30
2023-04-14T13:29:48.062Z,13.90
2023-04-14T13:32:16.048Z,13.90
2023-04-14T13:34:44.717Z,12.40
2023-04-14T13:37:12.486Z,12.20
2023-04-14T13:39:41.625Z,12.00
2023-04-14T13:42:09.486Z,12.10
2023-04-14T13:44:37.553Z,12.20
2023-04-14T13:47:05.551Z,12.30
2023-04-14T13:49:33.342Z,12.60
2023-04-14T13:52:01.157Z,12.70
2023-04-14T13:54:28.980Z,11.80
2023-04-14T13:56:58.099Z,11.60
2023-04-14T13:59:25.944Z,11.80
2023-04-14T14:01:53.866Z,12.30
2023-04-14T14:04:22.023Z,12.20
2023-04-14T14:06:49.869Z,11.60
2023-04-14T14:09:17.947Z,12.10
2023-04-14T14:11:46.645Z,12.60
2023-04-14T14:14:15.789Z,12.80
2023-04-14T14:16:43.660Z,12.80
2023-04-14T14:19:16.979Z,13.20
2023-04-14T14:21:45.179Z,13.10
2023-04-14T14:24:14.009Z,12.70
2023-04-14T14:26:41.817Z,12.60
2023-04-14T14:29:09.713Z,12.60
2023-04-14T14:31:38.893Z,12.70
2023-04-14T14:34:07.074Z,12.10
2023-04-14T14:36:34.862Z,12.20
2023-04-14T14:39:02.723Z,12.30
2023-04-14T14:41:31.154Z,12.60
2023-04-14T14:43:59.991Z,12.50
2023-04-14T14:46:29.250Z,12.90
2023-04-14T14:48:58.847Z,12.90
2023-04-14T14:51:27.612Z,12.60
2023-04-14T14:54:04.146Z,12.50
2023-04-14T14:56:36.850Z,12.60
2023-04-14T14:59:04.827Z,12.00
2023-04-14T15:01:34.185Z,12.40
2023-04-14T15:04:05.207Z,12.40
2023-04-14T15:06:33.962Z,11.90
2023-04-14T15:09:02.611Z,12.20
2023-04-14T15:11:30.675Z,12.30
2023-04-14T15:13:59.626Z,12.50
2023-04-14T15:16:28.327Z,12.40
2023-04-14T15:18:56.303Z,12.10
2023-04-14T15:21:25.485Z,12.30
2023-04-14T15:23:53.299Z,12.50
2023-04-14T15:26:22.066Z,12.50
2023-04-14T15:28:49.857Z,12.50
2023-04-14T15:31:17.684Z,12.80
2023-04-14T15:33:46.123Z,12.40
2023-04-14T15:36:13.918Z,12.40
2023-04-14T15:38:44.197Z,12.40
2023-04-14T15:41:12.049Z,12.70
2023-04-14T15:43:39.883Z,12.70
2023-04-14T15:46:07.843Z,12.40
2023-04-14T15:48:35.940Z,12.10
2023-04-14T15:51:04.848Z,12.20
2023-04-14T15:53:32.920Z,12.20
2023-04-14T15:56:03.001Z,12.30
2023-04-14T15:58:30.832Z,12.10
2023-04-14T16:00:58.659Z,11.80
2023-04-14T16:03:26.782Z,11.90
2023-04-14T16:06:02.397Z,12.10
2023-04-14T16:08:30.389Z,11.60
2023-04-14T16:10:58.353Z,11.80
2023-04-14T16:13:27.531Z,11.80
2023-04-14T16:15:55.467Z,11.80
2023-04-14T16:18:23.413Z,11.40
2023-04-14T16:20:51.245Z,11.40
2023-04-14T16:23:19.243Z,11.50
2023-04-14T16:25:50.289Z,11.40
2023-04-14T16:28:18.544Z,11.50
2023-04-14T16:30:47.672Z,11.70
2023-04-14T16:33:15.834Z,11.60
2023-04-14T16:35:43.684Z,11.70
2023-04-14T16:38:11.534Z,11.70
2023-04-14T16:40:39.900Z,11.80
2023-04-14T16:43:07.717Z,11.70
2023-04-14T16:45:35.614Z,11.60
2023-04-14T16:48:05.088Z,11.50
2023-04-14T16:50:33.133Z,11.50
2023-04-14T16:53:01.737Z,11.40
2023-04-14T16:55:29.566Z,11.10
2023-04-14T16:57:57.361Z,11.00
2023-04-14T17:00:26.536Z,11.00
2023-04-14T17:02:54.585Z,10.70
2023-04-14T17:05:23.997Z,10.60
2023-04-14T17:07:52.399Z,10.60
2023-04-14T17:10:20.226Z,10.60
2023-04-14T17:12:48.088Z,10.60
2023-04-14T17:15:15.959Z,10.50
2023-04-14T17:17:43.928Z,10.50
2023-04-14T17:20:12.639Z,10.50
2023-04-14T17:22:42.184Z,10.40
2023-04-14T17:25:10.843Z,10.30
2023-04-14T17:27:39.145Z,10.20
2023-04-14T17:30:10.781Z,10.10
2023-04-14T17:32:40.197Z,10.10
2023-04-14T17:35:09.054Z,9.90
2023-04-14T17:37:37.633Z,9.80
2023-04-14T17:40:08.548Z,9.70
2023-04-14T17:42:36.677Z,9.60
2023-04-14T17:45:05.110Z,9.40
2023-04-14T17:47:37.745Z,9.30
2023-04-14T17:50:06.445Z,9.10
2023-04-14T17:52:35.658Z,8.80
2023-04-14T17:55:04.321Z,8.60
2023-04-14T17:57:33.487Z,8.40
2023-04-14T18:00:01.934Z,8.20
2023-04-14T18:02:32.774Z,8.00
2023-04-14T18:05:01.136Z,7.80
2023-04-14T18:07:28.977Z,7.70
2023-04-14T18:09:56.853Z,7.50
2023-04-14T18:12:25.144Z,7.40
2023-04-14T18:14:54.359Z,7.20
2023-04-14T18:17:22.277Z,7.10
2023-04-14T18:19:50.151Z,6.90
2023-04-14T18:22:18.282Z,6.70
2023-04-14T18:24:48.686Z,6.60
2023-04-14T18:29:47.712Z,6.40
2023-04-14T18:32:16.889Z,6.30
2023-04-14T18:34:44.864Z,6.30
2023-04-14T18:37:12.767Z,6.20
2023-04-14T18:39:40.587Z,6.10
2023-04-14T18:42:08.531Z,6.00
2023-04-14T18:44:36.528Z,5.80
2023-04-14T18:47:04.367Z,5.70
2023-04-14T18:49:33.552Z,5.60
2023-04-14T18:52:01.600Z,5.50
2023-04-14T18:54:29.542Z,5.40
2023-04-14T18:56:57.354Z,5.30
2023-04-14T18:59:26.093Z,5.20
2023-04-14T19:01:53.969Z,5.10
2023-04-14T19:04:21.893Z,5.10
2023-04-14T19:06:51.128Z,5.00
2023-04-14T19:09:18.916Z,4.90
2023-04-14T19:11:47.849Z,4.80
2023-04-14T19:14:15.661Z,4.70
2023-04-14T19:16:43.621Z,4.60
2023-04-14T19:19:11.404Z,4.50
2023-04-14T19:21:39.556Z,4.40
2023-04-14T19:24:09.056Z,4.30
2023-04-14T19:26:40.462Z,4.30
2023-04-14T19:29:08.417Z,4.30
2023-04-14T19:31:36.282Z,4.20
2023-04-14T19:34:04.086Z,4.10
2023-04-14T19:36:34.260Z,4.00
2023-04-14T19:39:02.341Z,3.80
2023-04-14T19:41:31.627Z,3.70
2023-04-14T19:44:03.875Z,3.60
2023-04-14T19:46:32.047Z,3.50
2023-04-14T19:49:00.841Z,3.40
2023-04-14T19:51:28.833Z,3.40
2023-04-14T19:53:57.160Z,3.40
2023-04-14T19:56:24.958Z,3.30
2023-04-14T19:58:54.185Z,3.30
2023-04-14T20:01:24.082Z,3.30
2023-04-14T20:04:05.353Z,3.30
2023-04-14T20:06:39.454Z,3.40
2023-04-14T20:09:07.492Z,3.30
2023-04-14T20:11:35.309Z,3.30
2023-04-14T20:14:04.868Z,3.20
2023-04-14T20:16:32.862Z,3.10
2023-04-14T20:19:01.714Z,3.00
2023-04-14T20:21:29.923Z,2.90
2023-04-14T20:23:57.815Z,2.80
2023-04-14T20:26:26.057Z,2.70
2023-04-14T20:28:54.033Z,2.60
2023-04-14T20:31:24.366Z,2.60
2023-04-14T20:33:52.238Z,2.70
2023-04-14T20:36:21.474Z,2.70
2023-04-14T20:38:49.637Z,2.60
2023-04-14T20:41:17.418Z,2.60
2023-04-14T20:43:45.185Z,2.60
2023-04-14T20:46:12.972Z,2.60
2023-04-14T20:48:42.335Z,2.60
2023-04-14T20:51:10.558Z,2.60
2023-04-14T20:53:38.813Z,2.50
2023-04-14T20:56:07.189Z,2.40
2023-04-14T20:58:34.968Z,2.40
2023-04-14T21:01:03.453Z,2.30
2023-04-14T21:03:34.513Z,2.20
2023-04-14T21:06:04.023Z,2.10
2023-04-14T21:08:31.890Z,2.10
2023-04-14T21:11:14.465Z,2.00
2023-04-14T21:15:31.115Z,2.00
2023-04-14T21:16:32.325Z,1.90
2023-04-14T21:19:00.586Z,1.90
2023-04-14T21:21:29.954Z,2.00
2023-04-14T21:23:58.041Z,2.10
2023-04-14T21:26:26.961Z,2.00
2023-04-14T21:28:54.904Z,2.00
2023-04-14T21:31:22.807Z,1.90
2023-04-14T21:33:50.749Z,1.70
2023-04-14T21:36:19.938Z,1.70
2023-04-14T21:38:49.421Z,1.60
2023-04-14T21:41:17.189Z,1.50
2023-04-14T21:43:45.025Z,1.40
2023-04-14T21:46:12.852Z,1.30
2023-04-14T21:48:41.052Z,1.20
2023-04-14T21:51:09.010Z,1.10
2023-04-14T21:53:37.439Z,1.00
2023-04-14T21:56:09.936Z,1.00
2023-04-14T21:58:39.276Z,0.90
2023-04-14T22:01:07.864Z,0.80
2023-04-14T22:03:37.421Z,0.90
2023-04-14T22:06:06.135Z,0.90
2023-04-14T22:08:34.143Z,1.00
2023-04-14T22:11:01.942Z,1.00
2023-04-14T22:13:31.069Z,1.00
2023-04-14T22:15:59.041Z,1.10
2023-04-14T22:18:27.594Z,1.30
2023-04-14T22:20:55.724Z,1.40
2023-04-14T22:23:23.904Z,1.30
2023-04-14T22:25:51.668Z,1.40
2023-04-14T22:28:19.582Z,1.30
2023-04-14T22:30:49.103Z,1.20
2023-04-14T22:33:16.953Z,1.10
2023-04-14T22:35:44.757Z,0.90
2023-04-14T22:38:12.529Z,0.90
2023-04-14T22:40:40.767Z,0.80
2023-04-14T22:43:09.496Z,0.90
2023-04-14T22:45:38.072Z,0.80
2023-04-14T22:48:08.808Z,0.80
2023-04-14T22:50:36.952Z,0.80
2023-04-14T22:53:05.017Z,0.70
2023-04-14T22:55:33.000Z,0.80
2023-04-14T22:58:00.821Z,0.80
2023-04-14T23:00:28.688Z,0.80
2023-04-14T23:02:59.271Z,0.80
2023-04-14T23:05:28.780Z,0.80
2023-04-14T23:07:56.573Z,0.60
2023-04-14T23:10:24.727Z,0.50
2023-04-14T23:12:52.937Z,0.40
2023-04-14T23:15:20.990Z,0.30
2023-04-14T23:17:48.905Z,0.60
2023-04-14T23:20:16.740Z,0.60
2023-04-14T23:22:45.879Z,0.40
2023-04-14T23:25:13.804Z,0.20
2023-04-14T23:27:41.637Z,0.20
2023-04-14T23:30:10.623Z,0.10
2023-04-14T23:32:38.600Z,0.00
2023-04-14T23:35:07.680Z,0.00
2023-04-14T23:37:35.449Z,0.00
2023-04-14T23:40:06.155Z,0.00
2023-04-14T23:42:34.531Z,-0.10
2023-04-14T23:45:02.317Z,-0.10
2023-04-14T23:47:30.573Z,-0.10
2023-04-14T23:49:58.396Z,0.00
2023-04-14T23:52:27.051Z,0.00
2023-04-14T23:54:54.834Z,-0.10
2023-04-14T23:57:24.717Z,-0.20
2023-04-14T23:59:52.914Z,-0.10
